sensor_id;sensor_type;location;lat;lon;timestamp;P1;durP1;ratioP1;P2;durP2;ratioP2
53751;SDS011;41095;53.090;6.692;2023-04-15T00:02:15;6.57;;;5.78;;
53751;SDS011;41095;53.090;6.692;2023-04-15T00:04:46;6.10;;;5.40;;
53751;SDS011;41095;53.090;6.692;2023-04-15T00:07:12;9.95;;;6.75;;
53751;SDS011;41095;53.090;6.692;2023-04-15T00:09:39;11.38;;;6.72;;
53751;SDS011;41095;53.090;6.692;2023-04-15T00:12:05;8.82;;;5.97;;
53751;SDS011;41095;53.090;6.692;2023-04-15T00:14:33;11.05;;;5.70;;
53751;SDS011;41095;53.090;6.692;2023-04-15T00:17:00;11.30;;;5.78;;
53751;SDS011;41095;53.090;6.692;2023-04-15T00:19:25;9.00;;;5.32;;
53751;SDS011;41095;53.090;6.692;2023-04-15T00:21:51;8.13;;;6.38;;
53751;SDS011;41095;53.090;6.692;2023-04-15T00:24:17;8.40;;;7.30;;
53751;SDS011;41095;53.090;6.692;2023-04-15T00:26:42;8.95;;;6.47;;
53751;SDS011;41095;53.090;6.692;2023-04-15T00:29:08;9.65;;;6.50;;
53751;SDS011;41095;53.090;6.692;2023-04-15T00:31:34;7.70;;;5.78;;
53751;SDS011;41095;53.090;6.692;2023-04-15T00:34:00;8.13;;;6.75;;
53751;SDS011;41095;53.090;6.692;2023-04-15T00:36:26;7.43;;;6.25;;
53751;SDS011;41095;53.090;6.692;2023-04-15T00:38:52;9.95;;;6.03;;
53751;SDS011;41095;53.090;6.692;2023-04-15T00:41:18;7.28;;;5.50;;
53751;SDS011;41095;53.090;6.692;2023-04-15T00:43:45;8.27;;;6.35;;
53751;SDS011;41095;53.090;6.692;2023-04-15T00:46:12;9.82;;;6.28;;
53751;SDS011;41095;53.090;6.692;2023-04-15T00:48:39;9.23;;;6.93;;
53751;SDS011;41095;53.090;6.692;2023-04-15T00:51:06;9.05;;;6.80;;
53751;SDS011;41095;53.090;6.692;2023-04-15T00:53:32;13.70;;;7.70;;
53751;SDS011;41095;53.090;6.692;2023-04-15T00:55:58;7.30;;;6.50;;
53751;SDS011;41095;53.090;6.692;2023-04-15T00:58:24;7.85;;;6.65;;
53751;SDS011;41095;53.090;6.692;2023-04-15T01:00:52;8.80;;;7.25;;
53751;SDS011;41095;53.090;6.692;2023-04-15T01:03:19;8.88;;;6.80;;
53751;SDS011;41095;53.090;6.692;2023-04-15T01:05:45;9.02;;;6.43;;
53751;SDS011;41095;53.090;6.692;2023-04-15T01:08:11;8.82;;;6.53;;
53751;SDS011;41095;53.090;6.692;2023-04-15T01:10:37;11.07;;;7.20;;
53751;SDS011;41095;53.090;6.692;2023-04-15T01:13:03;10.05;;;6.43;;
53751;SDS011;41095;53.090;6.692;2023-04-15T01:15:29;10.38;;;7.53;;
53751;SDS011;41095;53.090;6.692;2023-04-15T01:17:56;10.50;;;7.35;;
53751;SDS011;41095;53.090;6.692;2023-04-15T01:20:23;10.98;;;7.10;;
53751;SDS011;41095;53.090;6.692;2023-04-15T01:22:49;9.68;;;7.03;;
53751;SDS011;41095;53.090;6.692;2023-04-15T01:25:18;7.78;;;6.78;;
53751;SDS011;41095;53.090;6.692;2023-04-15T01:27:51;7.05;;;5.82;;
53751;SDS011;41095;53.090;6.692;2023-04-15T01:30:17;8.75;;;6.28;;
53751;SDS011;41095;53.090;6.692;2023-04-15T01:32:42;12.65;;;7.25;;
53751;SDS011;41095;53.090;6.692;2023-04-15T01:35:08;10.73;;;7.50;;
53751;SDS011;41095;53.090;6.692;2023-04-15T01:37:34;8.95;;;6.85;;
53751;SDS011;41095;53.090;6.692;2023-04-15T01:40:01;8.65;;;6.57;;
53751;SDS011;41095;53.090;6.692;2023-04-15T01:42:27;10.35;;;7.70;;
53751;SDS011;41095;53.090;6.692;2023-04-15T01:44:53;11.23;;;7.20;;
53751;SDS011;41095;53.090;6.692;2023-04-15T01:47:18;10.77;;;7.50;;
53751;SDS011;41095;53.090;6.692;2023-04-15T01:49:44;9.00;;;6.97;;
53751;SDS011;41095;53.090;6.692;2023-04-15T01:52:10;6.78;;;6.07;;
53751;SDS011;41095;53.090;6.692;2023-04-15T01:54:36;10.63;;;7.70;;
53751;SDS011;41095;53.090;6.692;2023-04-15T01:57:02;8.18;;;7.13;;
53751;SDS011;41095;53.090;6.692;2023-04-15T01:59:28;9.43;;;6.78;;
53751;SDS011;41095;53.090;6.692;2023-04-15T02:01:55;10.25;;;8.07;;
53751;SDS011;41095;53.090;6.692;2023-04-15T02:04:21;10.57;;;7.13;;
53751;SDS011;41095;53.090;6.692;2023-04-15T02:06:47;10.23;;;8.77;;
53751;SDS011;41095;53.090;6.692;2023-04-15T02:09:13;12.07;;;8.80;;
53751;SDS011;41095;53.090;6.692;2023-04-15T02:11:38;11.18;;;7.90;;
53751;SDS011;41095;53.090;6.692;2023-04-15T02:14:04;10.68;;;8.23;;
53751;SDS011;41095;53.090;6.692;2023-04-15T02:16:31;12.07;;;8.90;;
53751;SDS011;41095;53.090;6.692;2023-04-15T02:18:58;13.07;;;8.65;;
53751;SDS011;41095;53.090;6.692;2023-04-15T02:21:27;9.55;;;8.48;;
53751;SDS011;41095;53.090;6.692;2023-04-15T02:23:53;11.75;;;9.68;;
53751;SDS011;41095;53.090;6.692;2023-04-15T02:26:19;15.77;;;8.05;;
53751;SDS011;41095;53.090;6.692;2023-04-15T02:28:45;10.73;;;8.65;;
53751;SDS011;41095;53.090;6.692;2023-04-15T02:31:11;10.27;;;9.18;;
53751;SDS011;41095;53.090;6.692;2023-04-15T02:33:37;12.35;;;8.68;;
53751;SDS011;41095;53.090;6.692;2023-04-15T02:36:03;12.70;;;9.13;;
53751;SDS011;41095;53.090;6.692;2023-04-15T02:38:29;11.55;;;10.32;;
53751;SDS011;41095;53.090;6.692;2023-04-15T02:40:56;10.90;;;8.80;;
53751;SDS011;41095;53.090;6.692;2023-04-15T02:43:21;12.90;;;9.07;;
53751;SDS011;41095;53.090;6.692;2023-04-15T02:45:47;13.75;;;9.60;;
53751;SDS011;41095;53.090;6.692;2023-04-15T02:48:13;13.02;;;9.10;;
53751;SDS011;41095;53.090;6.692;2023-04-15T02:50:42;14.15;;;9.35;;
53751;SDS011;41095;53.090;6.692;2023-04-15T02:53:07;12.57;;;9.18;;
53751;SDS011;41095;53.090;6.692;2023-04-15T02:55:33;11.07;;;8.88;;
53751;SDS011;41095;53.090;6.692;2023-04-15T02:57:59;12.93;;;9.48;;
53751;SDS011;41095;53.090;6.692;2023-04-15T03:00:25;14.00;;;10.70;;
53751;SDS011;41095;53.090;6.692;2023-04-15T03:02:56;15.50;;;10.55;;
53751;SDS011;41095;53.090;6.692;2023-04-15T03:05:23;13.20;;;10.07;;
53751;SDS011;41095;53.090;6.692;2023-04-15T03:07:50;11.63;;;10.43;;
53751;SDS011;41095;53.090;6.692;2023-04-15T03:10:16;13.15;;;11.15;;
53751;SDS011;41095;53.090;6.692;2023-04-15T03:12:42;19.10;;;12.82;;
53751;SDS011;41095;53.090;6.692;2023-04-15T03:15:07;14.40;;;12.57;;
53751;SDS011;41095;53.090;6.692;2023-04-15T03:17:34;12.65;;;11.23;;
53751;SDS011;41095;53.090;6.692;2023-04-15T03:20:03;14.32;;;11.88;;
53751;SDS011;41095;53.090;6.692;2023-04-15T03:22:30;15.57;;;13.38;;
53751;SDS011;41095;53.090;6.692;2023-04-15T03:24:56;13.45;;;12.07;;
53751;SDS011;41095;53.090;6.692;2023-04-15T03:27:22;16.15;;;12.77;;
53751;SDS011;41095;53.090;6.692;2023-04-15T03:29:48;18.05;;;12.70;;
53751;SDS011;41095;53.090;6.692;2023-04-15T03:32:14;16.70;;;13.63;;
53751;SDS011;41095;53.090;6.692;2023-04-15T03:34:40;14.23;;;12.73;;
53751;SDS011;41095;53.090;6.692;2023-04-15T03:37:06;18.38;;;13.38;;
53751;SDS011;41095;53.090;6.692;2023-04-15T03:39:32;17.08;;;12.68;;
53751;SDS011;41095;53.090;6.692;2023-04-15T03:41:58;18.00;;;14.00;;
53751;SDS011;41095;53.090;6.692;2023-04-15T03:44:25;17.20;;;13.98;;
53751;SDS011;41095;53.090;6.692;2023-04-15T03:46:52;18.27;;;13.95;;
53751;SDS011;41095;53.090;6.692;2023-04-15T03:49:18;18.88;;;14.40;;
53751;SDS011;41095;53.090;6.692;2023-04-15T03:51:44;18.08;;;13.98;;
53751;SDS011;41095;53.090;6.692;2023-04-15T03:54:10;19.08;;;14.10;;
53751;SDS011;41095;53.090;6.692;2023-04-15T03:56:39;13.90;;;11.73;;
53751;SDS011;41095;53.090;6.692;2023-04-15T03:59:05;17.25;;;13.15;;
53751;SDS011;41095;53.090;6.692;2023-04-15T04:01:31;19.98;;;14.38;;
53751;SDS011;41095;53.090;6.692;2023-04-15T04:03:56;19.92;;;14.65;;
53751;SDS011;41095;53.090;6.692;2023-04-15T04:06:22;18.73;;;15.35;;
53751;SDS011;41095;53.090;6.692;2023-04-15T04:08:48;23.73;;;16.20;;
53751;SDS011;41095;53.090;6.692;2023-04-15T04:11:13;15.23;;;12.63;;
53751;SDS011;41095;53.090;6.692;2023-04-15T04:13:39;19.27;;;14.57;;
53751;SDS011;41095;53.090;6.692;2023-04-15T04:16:05;22.50;;;15.90;;
53751;SDS011;41095;53.090;6.692;2023-04-15T04:18:32;21.08;;;13.88;;
53751;SDS011;41095;53.090;6.692;2023-04-15T04:20:57;19.77;;;16.20;;
53751;SDS011;41095;53.090;6.692;2023-04-15T04:23:23;19.35;;;15.65;;
53751;SDS011;41095;53.090;6.692;2023-04-15T04:25:49;20.15;;;13.20;;
53751;SDS011;41095;53.090;6.692;2023-04-15T04:28:16;18.40;;;13.80;;
53751;SDS011;41095;53.090;6.692;2023-04-15T04:30:42;22.52;;;15.32;;
53751;SDS011;41095;53.090;6.692;2023-04-15T04:33:08;23.33;;;15.32;;
53751;SDS011;41095;53.090;6.692;2023-04-15T04:35:33;18.80;;;15.05;;
53751;SDS011;41095;53.090;6.692;2023-04-15T04:38:01;21.63;;;15.70;;
53751;SDS011;41095;53.090;6.692;2023-04-15T04:40:28;20.35;;;15.93;;
53751;SDS011;41095;53.090;6.692;2023-04-15T04:42:53;18.08;;;14.07;;
53751;SDS011;41095;53.090;6.692;2023-04-15T04:45:19;21.70;;;16.15;;
53751;SDS011;41095;53.090;6.692;2023-04-15T04:47:45;19.33;;;14.60;;
53751;SDS011;41095;53.090;6.692;2023-04-15T04:50:11;20.00;;;16.58;;
53751;SDS011;41095;53.090;6.692;2023-04-15T04:52:37;22.52;;;16.77;;
53751;SDS011;41095;53.090;6.692;2023-04-15T04:55:03;21.75;;;15.57;;
53751;SDS011;41095;53.090;6.692;2023-04-15T04:57:30;18.23;;;13.80;;
53751;SDS011;41095;53.090;6.692;2023-04-15T04:59:56;20.13;;;16.42;;
53751;SDS011;41095;53.090;6.692;2023-04-15T05:02:21;21.50;;;17.08;;
53751;SDS011;41095;53.090;6.692;2023-04-15T05:04:47;16.35;;;14.20;;
53751;SDS011;41095;53.090;6.692;2023-04-15T05:07:16;20.80;;;15.00;;
53751;SDS011;41095;53.090;6.692;2023-04-15T05:09:41;21.02;;;16.33;;
53751;SDS011;41095;53.090;6.692;2023-04-15T05:12:07;20.45;;;14.95;;
53751;SDS011;41095;53.090;6.692;2023-04-15T05:14:38;19.80;;;14.85;;
53751;SDS011;41095;53.090;6.692;2023-04-15T05:17:03;17.45;;;14.68;;
53751;SDS011;41095;53.090;6.692;2023-04-15T05:19:29;20.75;;;15.52;;
53751;SDS011;41095;53.090;6.692;2023-04-15T05:21:55;18.20;;;14.73;;
53751;SDS011;41095;53.090;6.692;2023-04-15T05:24:22;16.15;;;13.00;;
53751;SDS011;41095;53.090;6.692;2023-04-15T05:26:47;20.92;;;15.93;;
53751;SDS011;41095;53.090;6.692;2023-04-15T05:29:13;20.13;;;15.05;;
53751;SDS011;41095;53.090;6.692;2023-04-15T05:31:39;20.52;;;15.45;;
53751;SDS011;41095;53.090;6.692;2023-04-15T05:34:05;17.23;;;14.43;;
53751;SDS011;41095;53.090;6.692;2023-04-15T05:36:31;18.00;;;14.88;;
53751;SDS011;41095;53.090;6.692;2023-04-15T05:38:57;17.33;;;14.68;;
53751;SDS011;41095;53.090;6.692;2023-04-15T05:41:22;21.98;;;15.68;;
53751;SDS011;41095;53.090;6.692;2023-04-15T05:43:48;24.13;;;16.20;;
53751;SDS011;41095;53.090;6.692;2023-04-15T05:46:14;20.42;;;15.23;;
53751;SDS011;41095;53.090;6.692;2023-04-15T05:48:39;15.93;;;14.23;;
53751;SDS011;41095;53.090;6.692;2023-04-15T05:51:05;20.10;;;15.63;;
53751;SDS011;41095;53.090;6.692;2023-04-15T05:53:31;18.30;;;14.38;;
53751;SDS011;41095;53.090;6.692;2023-04-15T05:55:57;17.80;;;13.93;;
53751;SDS011;41095;53.090;6.692;2023-04-15T05:58:22;19.58;;;13.45;;
53751;SDS011;41095;53.090;6.692;2023-04-15T06:00:48;19.08;;;15.10;;
53751;SDS011;41095;53.090;6.692;2023-04-15T06:03:14;19.00;;;14.35;;
53751;SDS011;41095;53.090;6.692;2023-04-15T06:05:40;18.85;;;14.52;;
53751;SDS011;41095;53.090;6.692;2023-04-15T06:08:06;16.88;;;14.38;;
53751;SDS011;41095;53.090;6.692;2023-04-15T06:10:33;18.15;;;14.18;;
53751;SDS011;41095;53.090;6.692;2023-04-15T06:13:01;16.52;;;13.43;;
53751;SDS011;41095;53.090;6.692;2023-04-15T06:15:28;19.05;;;14.07;;
53751;SDS011;41095;53.090;6.692;2023-04-15T06:17:53;15.77;;;13.88;;
53751;SDS011;41095;53.090;6.692;2023-04-15T06:20:19;17.50;;;14.00;;
53751;SDS011;41095;53.090;6.692;2023-04-15T06:22:45;17.27;;;13.60;;
53751;SDS011;41095;53.090;6.692;2023-04-15T06:25:11;20.58;;;13.45;;
53751;SDS011;41095;53.090;6.692;2023-04-15T06:27:36;16.98;;;13.48;;
53751;SDS011;41095;53.090;6.692;2023-04-15T06:30:02;18.42;;;13.63;;
53751;SDS011;41095;53.090;6.692;2023-04-15T06:32:29;19.65;;;13.98;;
53751;SDS011;41095;53.090;6.692;2023-04-15T06:34:56;16.35;;;11.80;;
53751;SDS011;41095;53.090;6.692;2023-04-15T06:37:21;15.20;;;11.73;;
53751;SDS011;41095;53.090;6.692;2023-04-15T06:39:47;18.17;;;13.40;;
53751;SDS011;41095;53.090;6.692;2023-04-15T06:42:12;15.38;;;11.60;;
53751;SDS011;41095;53.090;6.692;2023-04-15T06:44:38;18.17;;;11.80;;
53751;SDS011;41095;53.090;6.692;2023-04-15T06:47:04;18.73;;;11.00;;
53751;SDS011;41095;53.090;6.692;2023-04-15T06:49:30;13.82;;;10.38;;
53751;SDS011;41095;53.090;6.692;2023-04-15T06:51:56;18.25;;;10.88;;
53751;SDS011;41095;53.090;6.692;2023-04-15T06:54:21;14.55;;;10.63;;
53751;SDS011;41095;53.090;6.692;2023-04-15T06:56:47;14.15;;;10.00;;
53751;SDS011;41095;53.090;6.692;2023-04-15T06:59:13;15.02;;;10.15;;
53751;SDS011;41095;53.090;6.692;2023-04-15T07:01:41;11.00;;;9.52;;
53751;SDS011;41095;53.090;6.692;2023-04-15T07:04:07;12.65;;;10.38;;
53751;SDS011;41095;53.090;6.692;2023-04-15T07:06:33;13.20;;;9.60;;
53751;SDS011;41095;53.090;6.692;2023-04-15T07:08:59;13.77;;;10.73;;
53751;SDS011;41095;53.090;6.692;2023-04-15T07:11:25;13.70;;;10.45;;
53751;SDS011;41095;53.090;6.692;2023-04-15T07:13:51;12.07;;;10.02;;
53751;SDS011;41095;53.090;6.692;2023-04-15T07:16:17;15.45;;;10.60;;
53751;SDS011;41095;53.090;6.692;2023-04-15T07:18:43;14.20;;;9.18;;
53751;SDS011;41095;53.090;6.692;2023-04-15T07:21:08;14.23;;;9.82;;
53751;SDS011;41095;53.090;6.692;2023-04-15T07:23:34;14.68;;;10.63;;
53751;SDS011;41095;53.090;6.692;2023-04-15T07:26:00;14.57;;;11.07;;
53751;SDS011;41095;53.090;6.692;2023-04-15T07:28:26;13.45;;;9.60;;
53751;SDS011;41095;53.090;6.692;2023-04-15T07:30:52;12.07;;;8.48;;
53751;SDS011;41095;53.090;6.692;2023-04-15T07:33:17;12.55;;;10.40;;
53751;SDS011;41095;53.090;6.692;2023-04-15T07:35:43;12.02;;;8.65;;
53751;SDS011;41095;53.090;6.692;2023-04-15T07:38:09;12.95;;;9.25;;
53751;SDS011;41095;53.090;6.692;2023-04-15T07:40:37;11.05;;;8.73;;
53751;SDS011;41095;53.090;6.692;2023-04-15T07:43:03;16.27;;;8.73;;
53751;SDS011;41095;53.090;6.692;2023-04-15T07:45:30;10.65;;;8.48;;
53751;SDS011;41095;53.090;6.692;2023-04-15T07:47:56;11.70;;;8.00;;
53751;SDS011;41095;53.090;6.692;2023-04-15T07:50:22;10.70;;;8.07;;
53751;SDS011;41095;53.090;6.692;2023-04-15T07:52:48;13.23;;;8.88;;
53751;SDS011;41095;53.090;6.692;2023-04-15T07:55:15;9.32;;;7.15;;
53751;SDS011;41095;53.090;6.692;2023-04-15T07:57:44;9.80;;;6.95;;
53751;SDS011;41095;53.090;6.692;2023-04-15T08:00:11;11.25;;;7.18;;
53751;SDS011;41095;53.090;6.692;2023-04-15T08:02:37;7.88;;;6.70;;
53751;SDS011;41095;53.090;6.692;2023-04-15T08:05:03;10.00;;;6.70;;
53751;SDS011;41095;53.090;6.692;2023-04-15T08:07:30;9.60;;;6.05;;
53751;SDS011;41095;53.090;6.692;2023-04-15T08:09:55;9.50;;;6.38;;
53751;SDS011;41095;53.090;6.692;2023-04-15T08:12:22;7.63;;;5.95;;
53751;SDS011;41095;53.090;6.692;2023-04-15T08:14:49;9.38;;;6.70;;
53751;SDS011;41095;53.090;6.692;2023-04-15T08:17:15;7.07;;;5.85;;
53751;SDS011;41095;53.090;6.692;2023-04-15T08:19:41;8.57;;;6.13;;
53751;SDS011;41095;53.090;6.692;2023-04-15T08:22:07;7.28;;;5.82;;
53751;SDS011;41095;53.090;6.692;2023-04-15T08:24:32;6.80;;;5.72;;
53751;SDS011;41095;53.090;6.692;2023-04-15T08:26:58;8.15;;;6.25;;
53751;SDS011;41095;53.090;6.692;2023-04-15T08:29:25;6.40;;;5.07;;
53751;SDS011;41095;53.090;6.692;2023-04-15T08:31:51;6.85;;;5.32;;
53751;SDS011;41095;53.090;6.692;2023-04-15T08:34:17;5.68;;;4.43;;
53751;SDS011;41095;53.090;6.692;2023-04-15T08:36:43;7.45;;;5.45;;
53751;SDS011;41095;53.090;6.692;2023-04-15T08:39:09;7.78;;;5.43;;
53751;SDS011;41095;53.090;6.692;2023-04-15T08:41:45;7.35;;;5.05;;
53751;SDS011;41095;53.090;6.692;2023-04-15T08:44:12;8.07;;;5.05;;
53751;SDS011;41095;53.090;6.692;2023-04-15T08:46:38;6.95;;;5.22;;
53751;SDS011;41095;53.090;6.692;2023-04-15T08:49:08;5.20;;;4.45;;
53751;SDS011;41095;53.090;6.692;2023-04-15T08:51:37;6.65;;;5.32;;
53751;SDS011;41095;53.090;6.692;2023-04-15T08:54:04;6.60;;;4.85;;
53751;SDS011;41095;53.090;6.692;2023-04-15T08:56:31;6.85;;;4.55;;
53751;SDS011;41095;53.090;6.692;2023-04-15T08:58:58;4.60;;;4.15;;
53751;SDS011;41095;53.090;6.692;2023-04-15T09:01:24;4.57;;;3.38;;
53751;SDS011;41095;53.090;6.692;2023-04-15T09:03:51;3.95;;;2.97;;
53751;SDS011;41095;53.090;6.692;2023-04-15T09:06:19;3.83;;;3.00;;
53751;SDS011;41095;53.090;6.692;2023-04-15T09:08:45;5.38;;;3.20;;
53751;SDS011;41095;53.090;6.692;2023-04-15T09:11:11;2.95;;;2.65;;
53751;SDS011;41095;53.090;6.692;2023-04-15T09:13:37;3.65;;;2.58;;
53751;SDS011;41095;53.090;6.692;2023-04-15T09:16:04;3.78;;;2.33;;
53751;SDS011;41095;53.090;6.692;2023-04-15T09:18:34;3.38;;;2.38;;
53751;SDS011;41095;53.090;6.692;2023-04-15T09:21:07;4.05;;;2.38;;
53751;SDS011;41095;53.090;6.692;2023-04-15T09:23:39;2.97;;;2.38;;
53751;SDS011;41095;53.090;6.692;2023-04-15T09:26:06;2.03;;;1.83;;
53751;SDS011;41095;53.090;6.692;2023-04-15T09:28:32;3.13;;;2.40;;
53751;SDS011;41095;53.090;6.692;2023-04-15T09:31:00;4.32;;;2.00;;
53751;SDS011;41095;53.090;6.692;2023-04-15T09:33:27;3.42;;;1.95;;
53751;SDS011;41095;53.090;6.692;2023-04-15T09:36:03;2.40;;;2.20;;
53751;SDS011;41095;53.090;6.692;2023-04-15T09:38:30;3.50;;;2.25;;
53751;SDS011;41095;53.090;6.692;2023-04-15T09:40:56;4.78;;;2.38;;
53751;SDS011;41095;53.090;6.692;2023-04-15T09:43:26;2.20;;;2.00;;
53751;SDS011;41095;53.090;6.692;2023-04-15T09:46:05;3.17;;;2.30;;
53751;SDS011;41095;53.090;6.692;2023-04-15T09:48:31;2.83;;;2.60;;
53751;SDS011;41095;53.090;6.692;2023-04-15T09:50:57;5.45;;;2.65;;
53751;SDS011;41095;53.090;6.692;2023-04-15T09:53:24;4.25;;;3.03;;
53751;SDS011;41095;53.090;6.692;2023-04-15T09:58:24;3.70;;;2.33;;
53751;SDS011;41095;53.090;6.692;2023-04-15T10:00:54;3.72;;;2.67;;
53751;SDS011;41095;53.090;6.692;2023-04-15T10:05:54;5.15;;;2.47;;
53751;SDS011;41095;53.090;6.692;2023-04-15T10:08:26;2.53;;;2.20;;
53751;SDS011;41095;53.090;6.692;2023-04-15T10:10:53;3.50;;;2.58;;
53751;SDS011;41095;53.090;6.692;2023-04-15T10:13:24;3.20;;;2.28;;
53751;SDS011;41095;53.090;6.692;2023-04-15T10:15:57;2.50;;;2.30;;
53751;SDS011;41095;53.090;6.692;2023-04-15T10:18:27;4.97;;;2.83;;
53751;SDS011;41095;53.090;6.692;2023-04-15T10:20:55;3.22;;;2.13;;
53751;SDS011;41095;53.090;6.692;2023-04-15T10:23:21;4.07;;;2.85;;
53751;SDS011;41095;53.090;6.692;2023-04-15T10:25:48;5.15;;;2.50;;
53751;SDS011;41095;53.090;6.692;2023-04-15T10:28:17;2.85;;;2.30;;
53751;SDS011;41095;53.090;6.692;2023-04-15T10:30:44;4.97;;;2.10;;
53751;SDS011;41095;53.090;6.692;2023-04-15T10:33:11;2.92;;;2.40;;
53751;SDS011;41095;53.090;6.692;2023-04-15T10:35:38;4.50;;;2.17;;
53751;SDS011;41095;53.090;6.692;2023-04-15T10:46:36;3.78;;;2.45;;
53751;SDS011;41095;53.090;6.692;2023-04-15T10:49:07;5.00;;;2.83;;
53751;SDS011;41095;53.090;6.692;2023-04-15T10:51:36;6.30;;;3.05;;
53751;SDS011;41095;53.090;6.692;2023-04-15T10:54:13;5.15;;;3.22;;
53751;SDS011;41095;53.090;6.692;2023-04-15T10:56:40;4.53;;;2.83;;
53751;SDS011;41095;53.090;6.692;2023-04-15T10:59:09;3.85;;;2.47;;
53751;SDS011;41095;53.090;6.692;2023-04-15T11:04:50;4.15;;;3.05;;
53751;SDS011;41095;53.090;6.692;2023-04-15T11:12:38;4.20;;;2.47;;
53751;SDS011;41095;53.090;6.692;2023-04-15T11:17:55;4.35;;;2.83;;
53751;SDS011;41095;53.090;6.692;2023-04-15T11:20:21;6.93;;;3.53;;
53751;SDS011;41095;53.090;6.692;2023-04-15T11:22:48;5.78;;;3.08;;
53751;SDS011;41095;53.090;6.692;2023-04-15T11:25:25;5.40;;;2.88;;
53751;SDS011;41095;53.090;6.692;2023-04-15T11:27:53;4.45;;;2.35;;
53751;SDS011;41095;53.090;6.692;2023-04-15T11:30:20;4.85;;;2.55;;
53751;SDS011;41095;53.090;6.692;2023-04-15T11:32:54;3.47;;;2.50;;
53751;SDS011;41095;53.090;6.692;2023-04-15T11:35:22;4.80;;;3.60;;
53751;SDS011;41095;53.090;6.692;2023-04-15T11:37:48;4.22;;;2.55;;
53751;SDS011;41095;53.090;6.692;2023-04-15T11:40:14;4.97;;;2.75;;
53751;SDS011;41095;53.090;6.692;2023-04-15T11:42:42;5.30;;;2.70;;
53751;SDS011;41095;53.090;6.692;2023-04-15T11:45:12;8.43;;;4.85;;
53751;SDS011;41095;53.090;6.692;2023-04-15T11:47:39;8.95;;;3.17;;
53751;SDS011;41095;53.090;6.692;2023-04-15T11:50:39;5.88;;;2.92;;
53751;SDS011;41095;53.090;6.692;2023-04-15T11:52:59;5.63;;;3.28;;
53751;SDS011;41095;53.090;6.692;2023-04-15T11:55:27;4.28;;;2.50;;
53751;SDS011;41095;53.090;6.692;2023-04-15T12:00:34;5.65;;;2.90;;
53751;SDS011;41095;53.090;6.692;2023-04-15T12:03:17;3.33;;;2.55;;
53751;SDS011;41095;53.090;6.692;2023-04-15T12:08:55;6.05;;;3.08;;
53751;SDS011;41095;53.090;6.692;2023-04-15T12:11:28;7.32;;;2.63;;
53751;SDS011;41095;53.090;6.692;2023-04-15T12:14:04;2.75;;;2.00;;
53751;SDS011;41095;53.090;6.692;2023-04-15T12:16:32;7.28;;;2.92;;
53751;SDS011;41095;53.090;6.692;2023-04-15T12:19:00;3.95;;;2.38;;
53751;SDS011;41095;53.090;6.692;2023-04-15T12:21:32;5.43;;;2.40;;
53751;SDS011;41095;53.090;6.692;2023-04-15T12:24:00;3.33;;;1.95;;
53751;SDS011;41095;53.090;6.692;2023-04-15T12:26:29;5.15;;;2.95;;
53751;SDS011;41095;53.090;6.692;2023-04-15T12:29:01;8.77;;;3.00;;
53751;SDS011;41095;53.090;6.692;2023-04-15T12:33:59;7.40;;;2.50;;
53751;SDS011;41095;53.090;6.692;2023-04-15T12:36:25;5.45;;;2.70;;
53751;SDS011;41095;53.090;6.692;2023-04-15T12:38:52;6.20;;;2.88;;
53751;SDS011;41095;53.090;6.692;2023-04-15T12:41:21;5.97;;;2.92;;
53751;SDS011;41095;53.090;6.692;2023-04-15T12:43:48;7.07;;;2.70;;
53751;SDS011;41095;53.090;6.692;2023-04-15T12:46:14;8.05;;;3.55;;
53751;SDS011;41095;53.090;6.692;2023-04-15T12:48:40;5.55;;;3.00;;
53751;SDS011;41095;53.090;6.692;2023-04-15T12:51:05;5.65;;;2.75;;
53751;SDS011;41095;53.090;6.692;2023-04-15T12:53:31;5.07;;;3.42;;
53751;SDS011;41095;53.090;6.692;2023-04-15T12:55:57;6.90;;;3.13;;
53751;SDS011;41095;53.090;6.692;2023-04-15T12:58:24;6.60;;;2.85;;
53751;SDS011;41095;53.090;6.692;2023-04-15T13:00:50;6.85;;;2.90;;
53751;SDS011;41095;53.090;6.692;2023-04-15T13:03:15;5.18;;;2.90;;
53751;SDS011;41095;53.090;6.692;2023-04-15T13:05:41;4.18;;;3.03;;
53751;SDS011;41095;53.090;6.692;2023-04-15T13:08:07;5.88;;;3.25;;
53751;SDS011;41095;53.090;6.692;2023-04-15T13:10:34;5.13;;;2.78;;
53751;SDS011;41095;53.090;6.692;2023-04-15T13:13:03;6.47;;;2.97;;
53751;SDS011;41095;53.090;6.692;2023-04-15T13:15:30;8.90;;;2.92;;
53751;SDS011;41095;53.090;6.692;2023-04-15T13:17:56;6.47;;;2.97;;
53751;SDS011;41095;53.090;6.692;2023-04-15T13:20:21;5.82;;;2.90;;
53751;SDS011;41095;53.090;6.692;2023-04-15T13:22:47;6.40;;;3.17;;
53751;SDS011;41095;53.090;6.692;2023-04-15T13:25:13;6.47;;;2.75;;
53751;SDS011;41095;53.090;6.692;2023-04-15T13:27:39;7.22;;;3.47;;
53751;SDS011;41095;53.090;6.692;2023-04-15T13:30:05;7.03;;;3.08;;
53751;SDS011;41095;53.090;6.692;2023-04-15T13:32:31;5.05;;;3.15;;
53751;SDS011;41095;53.090;6.692;2023-04-15T13:34:57;8.40;;;3.25;;
53751;SDS011;41095;53.090;6.692;2023-04-15T13:37:26;4.72;;;3.70;;
53751;SDS011;41095;53.090;6.692;2023-04-15T13:39:53;4.05;;;2.50;;
53751;SDS011;41095;53.090;6.692;2023-04-15T13:42:20;4.05;;;2.90;;
53751;SDS011;41095;53.090;6.692;2023-04-15T13:44:46;11.45;;;3.65;;
53751;SDS011;41095;53.090;6.692;2023-04-15T13:47:12;10.07;;;3.08;;
53751;SDS011;41095;53.090;6.692;2023-04-15T13:49:40;6.70;;;3.05;;
53751;SDS011;41095;53.090;6.692;2023-04-15T13:52:06;8.68;;;3.15;;
53751;SDS011;41095;53.090;6.692;2023-04-15T13:54:31;3.95;;;2.80;;
53751;SDS011;41095;53.090;6.692;2023-04-15T13:56:57;7.28;;;2.83;;
53751;SDS011;41095;53.090;6.692;2023-04-15T13:59:23;5.55;;;3.38;;
53751;SDS011;41095;53.090;6.692;2023-04-15T14:01:48;6.45;;;3.00;;
53751;SDS011;41095;53.090;6.692;2023-04-15T14:04:14;6.75;;;3.08;;
53751;SDS011;41095;53.090;6.692;2023-04-15T14:06:40;5.55;;;2.95;;
53751;SDS011;41095;53.090;6.692;2023-04-15T14:09:05;4.50;;;3.38;;
53751;SDS011;41095;53.090;6.692;2023-04-15T14:11:31;7.47;;;3.38;;
53751;SDS011;41095;53.090;6.692;2023-04-15T14:13:59;6.45;;;3.15;;
53751;SDS011;41095;53.090;6.692;2023-04-15T14:16:25;8.23;;;3.22;;
53751;SDS011;41095;53.090;6.692;2023-04-15T14:18:50;5.65;;;3.33;;
53751;SDS011;41095;53.090;6.692;2023-04-15T14:21:16;12.75;;;3.90;;
53751;SDS011;41095;53.090;6.692;2023-04-15T14:23:42;8.88;;;4.30;;
53751;SDS011;41095;53.090;6.692;2023-04-15T14:26:08;5.70;;;3.47;;
53751;SDS011;41095;53.090;6.692;2023-04-15T14:28:33;6.13;;;3.40;;
53751;SDS011;41095;53.090;6.692;2023-04-15T14:30:59;9.52;;;3.70;;
53751;SDS011;41095;53.090;6.692;2023-04-15T14:33:25;7.75;;;3.08;;
53751;SDS011;41095;53.090;6.692;2023-04-15T14:35:51;7.97;;;3.35;;
53751;SDS011;41095;53.090;6.692;2023-04-15T14:38:17;8.70;;;3.40;;
53751;SDS011;41095;53.090;6.692;2023-04-15T14:40:42;7.50;;;3.65;;
53751;SDS011;41095;53.090;6.692;2023-04-15T14:43:09;7.45;;;4.10;;
53751;SDS011;41095;53.090;6.692;2023-04-15T14:45:36;10.80;;;3.88;;
53751;SDS011;41095;53.090;6.692;2023-04-15T14:48:02;10.55;;;4.28;;
53751;SDS011;41095;53.090;6.692;2023-04-15T14:50:30;8.90;;;3.58;;
53751;SDS011;41095;53.090;6.692;2023-04-15T14:52:57;8.80;;;3.78;;
53751;SDS011;41095;53.090;6.692;2023-04-15T14:55:22;5.95;;;3.22;;
53751;SDS011;41095;53.090;6.692;2023-04-15T14:57:48;7.60;;;3.40;;
53751;SDS011;41095;53.090;6.692;2023-04-15T15:00:14;9.80;;;3.85;;
53751;SDS011;41095;53.090;6.692;2023-04-15T15:02:40;6.13;;;3.95;;
53751;SDS011;41095;53.090;6.692;2023-04-15T15:05:06;9.93;;;4.07;;
53751;SDS011;41095;53.090;6.692;2023-04-15T15:07:33;8.18;;;3.97;;
53751;SDS011;41095;53.090;6.692;2023-04-15T15:10:01;9.60;;;4.10;;